Time;durP1;ratioP1;P1;durP2;ratioP2;P2;SDS_P1;SDS_P2;PMS_P1;PMS_P2;Temp;Humidity;BMP_temperature;BMP_pressure;BME280_temperature;BME280_humidity;BME280_pressure;Samples;Min_cycle;Max_cycle;Signal;HPM_P1;HPM_P2
2023/01/08 00:02:18;;;;;;;8.65;3.05;;;9.40;99.90;;;;;;5072837;28;20115;-84
2023/01/08 00:04:43;;;;;;;7.93;3.10;;;9.30;99.90;;;;;;5072932;28;20093;-83
2023/01/08 00:07:09;;;;;;;7.90;2.97;;;9.30;99.90;;;;;;5057569;28;20490;-83
2023/01/08 00:09:35;;;;;;;7.85;2.65;;;9.30;99.90;;;;;;5041316;28;20066;-83
2023/01/08 00:12:01;;;;;;;7.30;2.80;;;9.40;99.90;;;;;;5039507;28;20040;-84
2023/01/08 00:14:26;;;;;;;8.20;2.90;;;9.40;99.90;;;;;;5060692;28;20036;-84
2023/01/08 00:16:52;;;;;;;7.50;3.08;;;9.40;99.90;;;;;;5075363;28;20082;-83
2023/01/08 00:19:18;;;;;;;7.90;2.90;;;9.40;99.90;;;;;;5074366;28;20040;-84
2023/01/08 00:21:44;;;;;;;7.32;2.80;;;9.40;99.90;;;;;;5080672;28;20608;-84
2023/01/08 00:24:09;;;;;;;7.82;2.95;;;9.40;99.90;;;;;;5063570;28;20615;-84
2023/01/08 00:26:35;;;;;;;6.82;2.88;;;9.40;99.90;;;;;;5065293;28;20090;-84
2023/01/08 00:29:01;;;;;;;7.88;2.90;;;9.40;99.90;;;;;;5073594;28;20052;-84
2023/01/08 00:31:27;;;;;;;7.93;3.20;;;9.40;99.90;;;;;;5041982;28;20051;-84
2023/01/08 00:33:52;;;;;;;8.88;3.08;;;9.40;99.90;;;;;;5055495;28;20037;-84
2023/01/08 00:36:18;;;;;;;7.25;2.58;;;9.40;99.90;;;;;;5067185;28;20033;-84
2023/01/08 00:38:45;;;;;;;7.38;2.80;;;9.40;99.90;;;;;;5068892;28;20131;-84
2023/01/08 00:41:13;;;;;;;8.00;2.97;;;9.40;99.90;;;;;;5049568;28;20493;-84
2023/01/08 00:43:39;;;;;;;8.40;3.05;;;9.40;99.90;;;;;;5060848;28;20059;-84
2023/01/08 00:46:06;;;;;;;8.65;3.38;;;9.40;99.90;;;;;;5059268;28;20040;-84
2023/01/08 00:48:36;;;;;;;8.13;3.10;;;9.40;99.90;;;;;;5062068;28;20051;-84
2023/01/08 00:51:02;;;;;;;8.52;3.00;;;9.40;99.90;;;;;;5032757;28;20041;-84
2023/01/08 00:53:28;;;;;;;7.25;2.85;;;9.40;99.90;;;;;;5056015;28;20120;-83
2023/01/08 00:56:01;;;;;;;7.15;2.90;;;9.40;99.90;;;;;;5063388;28;20037;-84
2023/01/08 00:58:28;;;;;;;10.18;3.30;;;9.40;99.90;;;;;;5058118;28;20493;-84
2023/01/08 01:00:53;;;;;;;7.35;2.70;;;9.40;99.90;;;;;;5045655;28;20036;-84
2023/01/08 01:03:19;;;;;;;9.82;3.00;;;9.30;99.90;;;;;;5063717;28;20041;-84
2023/01/08 01:05:45;;;;;;;7.25;2.72;;;9.30;99.90;;;;;;5051741;28;20068;-84
2023/01/08 01:08:10;;;;;;;7.88;3.00;;;9.30;99.90;;;;;;5013205;28;20342;-84
2023/01/08 01:10:38;;;;;;;7.90;3.03;;;9.30;99.90;;;;;;5061037;28;20428;-84
2023/01/08 01:13:04;;;;;;;8.10;2.92;;;9.30;99.90;;;;;;5064055;28;20056;-84
2023/01/08 01:15:29;;;;;;;7.07;2.70;;;9.20;99.90;;;;;;5056767;28;20494;-83
2023/01/08 01:17:55;;;;;;;8.10;2.85;;;9.20;99.90;;;;;;5060920;28;20025;-83
2023/01/08 01:20:22;;;;;;;7.15;2.50;;;9.20;99.90;;;;;;5053767;28;20051;-83
2023/01/08 01:22:48;;;;;;;7.03;2.72;;;9.20;99.90;;;;;;5081781;28;20040;-85
2023/01/08 01:25:14;;;;;;;7.32;2.60;;;9.20;99.90;;;;;;5067735;28;20051;-83
2023/01/08 01:27:40;;;;;;;7.88;2.70;;;9.20;99.90;;;;;;5076816;28;20072;-84
2023/01/08 01:30:07;;;;;;;9.27;2.90;;;9.20;99.90;;;;;;5067406;28;20084;-84
2023/01/08 01:32:32;;;;;;;7.38;2.25;;;9.20;99.90;;;;;;5048650;28;20048;-83
2023/01/08 01:34:58;;;;;;;7.15;2.60;;;9.20;99.90;;;;;;5067607;28;20040;-84
2023/01/08 01:37:24;;;;;;;6.43;2.58;;;9.20;99.90;;;;;;5045297;28;20032;-84
2023/01/08 01:39:50;;;;;;;6.60;2.60;;;9.30;99.90;;;;;;5051841;28;20543;-84
2023/01/08 01:45:21;;;;;;;7.10;2.70;;;9.30;99.90;;;;;;5025059;28;20056;-84
2023/01/08 01:48:10;;;;;;;8.02;2.75;;;9.30;99.90;;;;;;5041633;28;20041;-84
2023/01/08 01:50:45;;;;;;;7.20;2.72;;;9.30;99.90;;;;;;5054153;28;20056;-83
2023/01/08 01:53:27;;;;;;;7.70;2.85;;;9.30;99.90;;;;;;5064874;28;20103;-84
2023/01/08 01:55:54;;;;;;;8.20;2.70;;;9.30;99.90;;;;;;5071275;28;20044;-84
2023/01/08 01:58:25;;;;;;;8.85;2.67;;;9.30;99.90;;;;;;5085453;28;20036;-84
2023/01/08 02:00:53;;;;;;;7.72;2.80;;;9.30;99.90;;;;;;5062541;28;20421;-84
2023/01/08 02:03:26;;;;;;;7.82;2.80;;;9.20;99.90;;;;;;5035374;28;20129;-84
2023/01/08 02:05:51;;;;;;;10.18;2.90;;;9.20;99.90;;;;;;5066521;28;20389;-84
2023/01/08 02:08:27;;;;;;;8.63;2.58;;;9.10;99.90;;;;;;5066373;28;20037;-85
2023/01/08 02:11:10;;;;;;;7.72;2.40;;;9.20;99.90;;;;;;5059389;28;20076;-85
2023/01/08 02:13:39;;;;;;;7.93;2.80;;;9.20;99.90;;;;;;5068741;28;20059;-84
2023/01/08 02:16:16;;;;;;;7.93;2.42;;;9.20;99.90;;;;;;5083009;28;20036;-85
2023/01/08 02:19:03;;;;;;;9.73;2.55;;;9.20;99.90;;;;;;5053245;28;20043;-85
2023/01/08 02:21:33;;;;;;;8.50;2.55;;;9.20;99.90;;;;;;5067481;28;20048;-84
2023/01/08 02:24:01;;;;;;;7.07;2.25;;;9.10;99.90;;;;;;5056541;28;20036;-84
2023/01/08 02:26:30;;;;;;;9.02;2.63;;;9.10;99.90;;;;;;5067855;28;20523;-83
2023/01/08 02:29:02;;;;;;;8.40;2.20;;;9.10;99.90;;;;;;5076364;28;20052;-84
2023/01/08 02:31:30;;;;;;;8.83;2.50;;;9.00;99.90;;;;;;5055541;28;20048;-85
2023/01/08 02:33:55;;;;;;;9.15;2.20;;;9.00;99.90;;;;;;5046250;28;20041;-84
2023/01/08 02:36:31;;;;;;;7.93;2.05;;;8.90;99.90;;;;;;5071997;28;20060;-84
2023/01/08 02:39:00;;;;;;;9.68;2.15;;;8.90;99.90;;;;;;5056631;28;20154;-84
2023/01/08 02:41:42;;;;;;;10.52;2.20;;;8.90;99.90;;;;;;5050516;28;20037;-84
2023/01/08 02:44:12;;;;;;;10.90;2.40;;;8.90;99.90;;;;;;5053155;28;20040;-85
2023/01/08 02:46:40;;;;;;;7.32;2.10;;;8.80;99.90;;;;;;5058559;28;20041;-84
2023/01/08 02:49:09;;;;;;;9.13;2.13;;;8.80;99.90;;;;;;5060441;28;20044;-85
2023/01/08 02:51:45;;;;;;;9.20;2.15;;;8.80;99.90;;;;;;5070981;28;20044;-84
2023/01/08 02:54:21;;;;;;;12.07;2.75;;;8.70;99.90;;;;;;5070111;28;20086;-84
2023/01/08 02:56:54;;;;;;;9.38;2.05;;;8.70;99.90;;;;;;5054167;28;20067;-83
2023/01/08 02:59:21;;;;;;;11.32;2.47;;;8.70;99.90;;;;;;5062344;28;20045;-84
2023/01/08 03:01:47;;;;;;;9.70;2.22;;;8.60;99.90;;;;;;5051392;28;21029;-84
2023/01/08 03:04:17;;;;;;;9.75;2.10;;;8.70;99.90;;;;;;5021007;28;20051;-84
2023/01/08 03:06:43;;;;;;;11.90;2.40;;;8.60;99.90;;;;;;5051162;28;20051;-84
2023/01/08 03:09:09;;;;;;;16.15;2.58;;;8.60;99.90;;;;;;5064157;28;20047;-84
2023/01/08 03:11:52;;;;;;;12.88;2.60;;;8.60;99.90;;;;;;5043166;28;20059;-83
2023/01/08 03:14:27;;;;;;;11.18;2.17;;;8.50;99.90;;;;;;5063293;28;20369;-84
2023/01/08 03:16:58;;;;;;;12.35;2.30;;;8.50;99.90;;;;;;5087522;28;20123;-83
2023/01/08 03:19:56;;;;;;;9.88;2.30;;;8.50;99.90;;;;;;5064799;28;20043;-84
2023/01/08 03:22:23;;;;;;;10.07;2.10;;;8.50;99.90;;;;;;5060197;28;20045;-84
2023/01/08 03:24:51;;;;;;;10.25;2.30;;;8.40;99.90;;;;;;5065698;28;20481;-85
2023/01/08 03:27:22;;;;;;;11.55;2.28;;;8.40;99.90;;;;;;5067264;28;20048;-83
2023/01/08 03:29:50;;;;;;;11.30;2.20;;;8.40;99.90;;;;;;5064333;28;20052;-84
2023/01/08 03:32:19;;;;;;;11.90;2.92;;;8.40;99.90;;;;;;5056440;28;20509;-85
2023/01/08 03:34:47;;;;;;;9.48;2.63;;;8.40;99.90;;;;;;5068764;28;20036;-84
2023/01/08 03:37:16;;;;;;;10.48;2.38;;;8.40;99.90;;;;;;5059354;28;20040;-84
2023/01/08 03:40:12;;;;;;;12.07;2.53;;;8.40;99.90;;;;;;5071183;28;20115;-84
2023/01/08 03:42:38;;;;;;;8.70;2.22;;;8.40;99.90;;;;;;5063621;28;20043;-84
2023/01/08 03:45:05;;;;;;;12.63;2.55;;;8.30;99.90;;;;;;5071352;28;20037;-84
2023/01/08 03:47:32;;;;;;;10.88;2.60;;;8.30;99.90;;;;;;5080572;28;20091;-85
2023/01/08 03:50:01;;;;;;;10.57;1.98;;;8.30;99.90;;;;;;5050725;28;20136;-85
2023/01/08 03:52:29;;;;;;;9.90;2.15;;;8.30;99.90;;;;;;5061845;28;20432;-85
2023/01/08 03:54:55;;;;;;;12.05;2.20;;;8.30;99.90;;;;;;5081982;28;20036;-85
2023/01/08 03:57:21;;;;;;;11.50;2.40;;;8.30;99.90;;;;;;5063890;28;20059;-85
2023/01/08 03:59:47;;;;;;;9.13;2.25;;;8.20;99.90;;;;;;5063631;28;20033;-85
2023/01/08 04:02:14;;;;;;;10.00;2.28;;;8.20;99.90;;;;;;5080072;28;20079;-86
2023/01/08 04:04:40;;;;;;;12.18;2.20;;;8.20;99.90;;;;;;5061575;28;20044;-85
2023/01/08 04:07:06;;;;;;;13.93;2.67;;;8.20;99.90;;;;;;5050308;28;20037;-85
2023/01/08 04:09:31;;;;;;;8.70;2.40;;;8.20;99.90;;;;;;5062727;28;20056;-85
2023/01/08 04:11:57;;;;;;;11.35;2.00;;;8.10;99.90;;;;;;5035842;28;20481;-85
2023/01/08 04:14:23;;;;;;;9.77;2.17;;;8.10;99.90;;;;;;5036365;28;20079;-84
2023/01/08 04:16:49;;;;;;;14.05;2.25;;;8.10;99.90;;;;;;5027034;28;20043;-85
2023/01/08 04:19:15;;;;;;;10.18;2.25;;;8.10;99.90;;;;;;5050307;28;20041;-85
2023/01/08 04:21:40;;;;;;;12.68;2.95;;;8.10;99.90;;;;;;5068834;28;20037;-85
2023/01/08 04:24:06;;;;;;;15.57;3.03;;;8.10;99.90;;;;;;5065077;28;20398;-85
2023/01/08 04:26:32;;;;;;;9.05;2.10;;;8.00;99.90;;;;;;5045352;28;20493;-85
2023/01/08 04:29:01;;;;;;;10.70;2.25;;;8.10;99.90;;;;;;5066660;28;20052;-85
2023/01/08 04:31:26;;;;;;;10.90;2.53;;;8.10;99.90;;;;;;5054799;28;20053;-85
2023/01/08 04:33:52;;;;;;;11.00;2.83;;;8.00;99.90;;;;;;5060328;28;20423;-86
2023/01/08 04:36:18;;;;;;;14.98;2.80;;;8.10;99.90;;;;;;5030440;28;20041;-85
2023/01/08 04:38:43;;;;;;;9.25;2.45;;;8.00;99.90;;;;;;5045639;28;20033;-85
2023/01/08 04:41:09;;;;;;;11.32;2.92;;;8.10;99.90;;;;;;5053627;28;20044;-85
2023/01/08 04:43:35;;;;;;;11.68;2.80;;;8.10;99.90;;;;;;5048648;28;20039;-85
2023/01/08 04:46:03;;;;;;;9.32;2.70;;;8.10;99.90;;;;;;5060010;28;20425;-85
2023/01/08 04:48:30;;;;;;;9.00;2.63;;;8.10;99.90;;;;;;5048748;28;20052;-85
2023/01/08 04:51:00;;;;;;;9.13;2.78;;;8.10;99.90;;;;;;5050990;28;20095;-85
2023/01/08 04:53:26;;;;;;;10.20;2.80;;;8.10;99.90;;;;;;5051194;28;20041;-86
2023/01/08 04:55:53;;;;;;;9.73;2.80;;;8.10;99.90;;;;;;5052890;28;20094;-86
2023/01/08 04:58:19;;;;;;;9.68;3.13;;;8.20;99.90;;;;;;5061623;28;20512;-86
2023/01/08 05:00:45;;;;;;;8.68;2.70;;;8.40;99.90;;;;;;5068043;28;20111;-86
2023/01/08 05:03:11;;;;;;;10.18;2.90;;;8.20;99.90;;;;;;5082349;28;20083;-84
2023/01/08 05:05:37;;;;;;;8.80;3.00;;;8.20;99.90;;;;;;5037449;28;20039;-85
2023/01/08 05:08:03;;;;;;;10.98;2.95;;;8.30;99.90;;;;;;5070741;28;20041;-84
2023/01/08 05:10:29;;;;;;;8.93;2.83;;;8.20;99.90;;;;;;5059186;28;20092;-85
2023/01/08 05:12:59;;;;;;;8.27;2.88;;;8.20;99.90;;;;;;5048226;28;20121;-84
2023/01/08 05:15:26;;;;;;;9.68;2.90;;;8.20;99.90;;;;;;5061841;28;20041;-85
2023/01/08 05:18:04;;;;;;;8.82;2.75;;;8.20;99.90;;;;;;5067512;28;20049;-84
2023/01/08 05:20:31;;;;;;;8.85;2.75;;;8.30;99.90;;;;;;5070310;28;20098;-84
2023/01/08 05:22:57;;;;;;;12.20;2.83;;;8.20;99.90;;;;;;5046411;28;20048;-84
2023/01/08 05:25:23;;;;;;;9.77;2.75;;;8.20;99.90;;;;;;5061924;28;20040;-83
2023/01/08 05:27:49;;;;;;;10.00;2.90;;;8.20;99.90;;;;;;5068640;28;20037;-84
2023/01/08 05:30:16;;;;;;;7.63;2.70;;;8.20;99.90;;;;;;5072016;28;20053;-84
2023/01/08 05:32:41;;;;;;;10.07;2.92;;;8.30;99.90;;;;;;5055222;28;20045;-85
2023/01/08 05:35:07;;;;;;;7.30;2.40;;;8.30;99.90;;;;;;5053797;28;20041;-86
2023/01/08 05:37:34;;;;;;;9.07;2.70;;;8.30;99.90;;;;;;5069690;28;20044;-84
2023/01/08 05:40:00;;;;;;;9.45;2.70;;;8.60;99.90;;;;;;5069126;28;20082;-84
2023/01/08 05:42:26;;;;;;;6.60;2.15;;;8.40;99.90;;;;;;5031789;28;20111;-84
2023/01/08 05:44:51;;;;;;;8.52;2.33;;;8.30;99.90;;;;;;5058807;28;20128;-85
2023/01/08 05:47:17;;;;;;;7.38;2.47;;;8.30;99.90;;;;;;5065685;28;20040;-85
2023/01/08 05:49:43;;;;;;;8.07;2.50;;;8.30;99.90;;;;;;5063250;28;20037;-85
2023/01/08 05:52:08;;;;;;;8.90;2.40;;;8.30;99.90;;;;;;5041854;28;20037;-85
2023/01/08 05:54:34;;;;;;;8.27;2.33;;;8.30;99.90;;;;;;5063509;28;20060;-84
2023/01/08 05:57:00;;;;;;;7.55;2.35;;;8.40;99.90;;;;;;5071032;28;20251;-85
2023/01/08 05:59:25;;;;;;;7.38;2.42;;;8.30;99.90;;;;;;5073484;28;20052;-85
2023/01/08 06:01:51;;;;;;;8.70;2.33;;;8.30;99.90;;;;;;5067100;28;20037;-85
2023/01/08 06:04:17;;;;;;;7.93;2.20;;;8.40;99.90;;;;;;5066923;28;20490;-85
2023/01/08 06:06:43;;;;;;;6.85;2.22;;;8.40;99.90;;;;;;5056932;28;20505;-85
2023/01/08 06:09:08;;;;;;;8.43;2.10;;;8.30;99.90;;;;;;5071032;28;20045;-84
2023/01/08 06:11:34;;;;;;;8.45;2.08;;;8.30;99.90;;;;;;5060887;28;20036;-84
2023/01/08 06:14:00;;;;;;;7.68;2.17;;;8.40;99.90;;;;;;5072443;28;20048;-85
2023/01/08 06:16:25;;;;;;;8.82;2.20;;;8.30;99.90;;;;;;5054838;28;20482;-84
2023/01/08 06:18:51;;;;;;;8.63;2.20;;;8.30;99.90;;;;;;5056797;28;20040;-85
2023/01/08 06:21:17;;;;;;;7.45;2.03;;;8.30;99.90;;;;;;5051939;28;20490;-84
2023/01/08 06:23:42;;;;;;;10.55;2.22;;;8.30;99.90;;;;;;5057115;28;20540;-84
2023/01/08 06:26:08;;;;;;;7.20;2.40;;;8.30;99.90;;;;;;5039629;28;20078;-84
2023/01/08 06:28:34;;;;;;;7.65;2.13;;;8.30;99.90;;;;;;5068215;28;20045;-84
2023/01/08 06:31:01;;;;;;;7.97;2.08;;;8.60;99.90;;;;;;5049734;28;20052;-84
2023/01/08 06:33:28;;;;;;;8.07;2.13;;;8.40;99.90;;;;;;5063182;28;20103;-85
2023/01/08 06:35:53;;;;;;;9.27;2.40;;;8.40;99.90;;;;;;5035572;28;20032;-85
2023/01/08 06:38:20;;;;;;;8.05;2.30;;;8.40;99.90;;;;;;5037953;28;20096;-84
2023/01/08 06:40:46;;;;;;;9.27;2.40;;;8.40;99.90;;;;;;5043923;28;20047;-85
2023/01/08 06:43:12;;;;;;;6.78;2.42;;;8.50;99.90;;;;;;5057769;28;20040;-84
2023/01/08 06:45:38;;;;;;;8.82;2.60;;;8.50;99.90;;;;;;5052098;28;20041;-85
2023/01/08 06:48:06;;;;;;;8.55;2.70;;;8.50;99.90;;;;;;5039671;28;20033;-84
2023/01/08 06:50:33;;;;;;;9.40;2.67;;;8.50;99.90;;;;;;5051408;28;20040;-84
2023/01/08 06:52:59;;;;;;;10.30;2.90;;;8.50;99.90;;;;;;5032966;28;20048;-84
2023/01/08 06:55:25;;;;;;;8.52;2.80;;;8.40;99.90;;;;;;5055557;28;20040;-85
2023/01/08 06:57:58;;;;;;;9.48;2.90;;;8.40;99.90;;;;;;5067026;28;20040;-84
2023/01/08 07:00:25;;;;;;;7.88;2.53;;;8.30;99.90;;;;;;5064945;28;20062;-85
2023/01/08 07:02:51;;;;;;;8.10;2.78;;;8.30;99.90;;;;;;5046403;28;20037;-84
2023/01/08 07:05:18;;;;;;;7.88;2.45;;;8.30;99.90;;;;;;5033228;28;20187;-84
2023/01/08 07:07:44;;;;;;;8.23;2.50;;;8.20;99.90;;;;;;5047712;28;20138;-85
2023/01/08 07:10:10;;;;;;;7.95;2.90;;;8.20;99.90;;;;;;5048029;28;20075;-85
2023/01/08 07:12:36;;;;;;;9.20;2.75;;;8.20;99.90;;;;;;5045951;28;20024;-86
2023/01/08 07:15:02;;;;;;;8.95;2.60;;;8.20;99.90;;;;;;5056630;28;20047;-85
2023/01/08 07:17:28;;;;;;;9.25;2.90;;;8.20;99.90;;;;;;5061239;28;20145;-86
2023/01/08 07:19:54;;;;;;;8.20;3.05;;;8.10;99.90;;;;;;5070678;28;20094;-85
2023/01/08 07:22:21;;;;;;;9.80;3.00;;;8.10;99.90;;;;;;5061944;28;20041;-85
2023/01/08 07:24:46;;;;;;;9.20;2.72;;;8.10;99.90;;;;;;5064453;28;20057;-85
2023/01/08 07:27:12;;;;;;;7.25;2.45;;;8.90;99.90;;;;;;5037071;28;20414;-85
2023/01/08 07:29:38;;;;;;;11.35;2.72;;;8.10;99.90;;;;;;5057839;28;20056;-85
2023/01/08 07:32:04;;;;;;;9.20;2.58;;;8.00;99.90;;;;;;5064595;28;20072;-85
2023/01/08 07:34:29;;;;;;;7.97;2.55;;;8.00;99.90;;;;;;5033715;28;20115;-85
2023/01/08 07:36:55;;;;;;;9.30;2.60;;;8.00;99.90;;;;;;5050386;28;20052;-85
2023/01/08 07:39:21;;;;;;;7.93;2.60;;;7.90;99.90;;;;;;5052181;28;20465;-85
2023/01/08 07:41:46;;;;;;;8.80;2.25;;;7.90;99.90;;;;;;5050816;28;20035;-85
2023/01/08 07:44:12;;;;;;;8.68;2.63;;;7.90;99.90;;;;;;5066579;28;20086;-86
2023/01/08 07:46:38;;;;;;;7.97;2.58;;;7.80;99.90;;;;;;5057427;28;20045;-85
2023/01/08 07:49:05;;;;;;;10.10;2.67;;;7.80;99.90;;;;;;5045121;28;20343;-85
2023/01/08 07:51:31;;;;;;;10.38;2.58;;;7.80;99.90;;;;;;5046197;28;20043;-85
2023/01/08 07:53:56;;;;;;;9.00;2.40;;;7.80;99.90;;;;;;5059214;28;20396;-87
2023/01/08 07:56:24;;;;;;;9.93;2.47;;;7.80;99.90;;;;;;5052318;28;20059;-86
2023/01/08 07:58:49;;;;;;;9.23;2.65;;;7.80;99.90;;;;;;5052142;28;20456;-86
2023/01/08 08:01:15;;;;;;;8.30;2.42;;;7.80;99.90;;;;;;5054243;28;20040;-86
2023/01/08 08:03:41;;;;;;;10.38;2.53;;;7.90;99.90;;;;;;5071105;28;20497;-85
2023/01/08 08:06:07;;;;;;;10.05;2.30;;;7.90;99.90;;;;;;5052634;28;20055;-85
2023/01/08 08:08:34;;;;;;;10.52;2.83;;;7.90;99.90;;;;;;5049399;28;20044;-86
2023/01/08 08:11:00;;;;;;;9.55;2.53;;;7.90;99.90;;;;;;5060569;28;20060;-85
2023/01/08 08:13:26;;;;;;;10.27;2.75;;;7.90;99.90;;;;;;5068676;28;20044;-86
2023/01/08 08:15:51;;;;;;;9.40;2.38;;;7.80;99.90;;;;;;5051888;28;20037;-85
2023/01/08 08:18:17;;;;;;;10.40;2.60;;;7.80;99.90;;;;;;5033301;28;20379;-85
2023/01/08 08:20:43;;;;;;;9.70;2.80;;;7.70;99.90;;;;;;5047142;28;20493;-86
2023/01/08 08:23:12;;;;;;;10.52;3.40;;;7.70;99.90;;;;;;5049444;28;20040;-85
2023/01/08 08:25:39;;;;;;;11.18;3.30;;;7.80;99.90;;;;;;5052474;28;20466;-86
2023/01/08 08:28:06;;;;;;;8.77;2.78;;;7.60;99.90;;;;;;5054035;28;20159;-87
2023/01/08 08:30:33;;;;;;;10.20;2.70;;;7.60;99.90;;;;;;5068170;28;20048;-87
2023/01/08 08:33:01;;;;;;;8.60;2.90;;;7.70;99.90;;;;;;5060104;28;20038;-88
2023/01/08 08:35:27;;;;;;;9.57;2.60;;;7.70;99.90;;;;;;5043485;28;20493;-86
2023/01/08 08:37:54;;;;;;;9.07;2.92;;;7.70;99.90;;;;;;5064110;28;20036;-85
2023/01/08 08:40:20;;;;;;;10.18;2.80;;;7.70;99.90;;;;;;5059175;28;20037;-85
2023/01/08 08:42:46;;;;;;;7.57;2.50;;;7.70;99.90;;;;;;5041952;28;20051;-86
2023/01/08 08:45:11;;;;;;;9.60;2.70;;;7.80;99.90;;;;;;5031288;28;20463;-85
2023/01/08 08:47:37;;;;;;;10.38;2.80;;;8.20;99.90;;;;;;5012468;28;20036;-85
2023/01/08 08:50:04;;;;;;;11.32;3.03;;;6.60;99.90;;;;;;5064317;28;20037;-85
2023/01/08 08:52:31;;;;;;;9.90;2.58;;;7.80;99.90;;;;;;5054250;28;20037;-85
2023/01/08 08:54:56;;;;;;;10.30;2.90;;;7.80;99.90;;;;;;5030330;28;20413;-86
2023/01/08 08:57:26;;;;;;;13.35;2.72;;;7.80;99.90;;;;;;5053952;28;20032;-85
2023/01/08 08:59:52;;;;;;;8.82;2.75;;;7.90;99.90;;;;;;5056201;28;21379;-86
2023/01/08 09:02:17;;;;;;;9.15;2.47;;;8.00;99.90;;;;;;5043355;28;20119;-86
2023/01/08 09:04:43;;;;;;;9.18;2.88;;;7.90;99.90;;;;;;5051397;28;20041;-86
2023/01/08 09:07:09;;;;;;;11.57;2.72;;;7.90;99.90;;;;;;5064998;28;20055;-87
2023/01/08 09:09:35;;;;;;;8.95;2.53;;;8.00;99.90;;;;;;5045578;28;20033;-86
2023/01/08 09:12:01;;;;;;;10.20;2.47;;;8.00;99.90;;;;;;5063569;28;20542;-86
2023/01/08 09:14:27;;;;;;;9.85;2.70;;;8.00;99.90;;;;;;5067056;28;20036;-86
2023/01/08 09:16:52;;;;;;;10.45;2.72;;;8.10;99.90;;;;;;5065685;28;20050;-86
2023/01/08 09:19:18;;;;;;;8.40;2.47;;;8.10;99.90;;;;;;5072238;28;20036;-86
2023/01/08 09:21:44;;;;;;;10.13;2.35;;;8.10;99.90;;;;;;5044163;28;20102;-86
2023/01/08 09:24:10;;;;;;;12.13;2.85;;;8.10;99.90;;;;;;5064630;28;20071;-85
2023/01/08 09:26:36;;;;;;;9.07;2.60;;;8.10;99.90;;;;;;5038348;28;20067;-86
2023/01/08 09:29:01;;;;;;;10.77;2.63;;;8.20;99.90;;;;;;5060506;28;20581;-86
2023/01/08 09:31:27;;;;;;;11.73;2.75;;;8.20;99.90;;;;;;5041612;28;20521;-84
2023/01/08 09:33:53;;;;;;;10.82;2.40;;;8.20;99.90;;;;;;5050482;28;20037;-84
2023/01/08 09:36:19;;;;;;;9.90;2.58;;;8.30;99.90;;;;;;5050635;28;20041;-85
2023/01/08 09:38:45;;;;;;;10.27;2.30;;;8.30;99.90;;;;;;5043385;28;20041;-86
2023/01/08 09:41:19;;;;;;;9.90;2.45;;;8.30;99.90;;;;;;5049630;28;20041;-86
2023/01/08 09:43:49;;;;;;;7.68;2.08;;;8.40;99.90;;;;;;5047785;28;20414;-85
2023/01/08 09:46:17;;;;;;;9.23;2.30;;;8.40;99.90;;;;;;5060382;28;20044;-85
2023/01/08 09:48:44;;;;;;;8.43;2.30;;;8.40;99.90;;;;;;5066491;28;20412;-85
2023/01/08 09:51:13;;;;;;;9.10;2.20;;;8.70;99.90;;;;;;5063680;28;20129;-85
2023/01/08 09:53:39;;;;;;;10.38;3.17;;;8.40;99.90;;;;;;5062398;28;20040;-85
2023/01/08 09:56:15;;;;;;;8.85;1.90;;;8.50;99.90;;;;;;5064087;28;20061;-85
2023/01/08 09:58:55;;;;;;;10.10;2.10;;;8.50;99.90;;;;;;5058612;28;20139;-85
2023/01/08 10:01:35;;;;;;;10.77;2.10;;;8.50;99.90;;;;;;5073361;28;20041;-85
2023/01/08 10:04:24;;;;;;;8.52;2.20;;;8.60;99.90;;;;;;5076065;28;20048;-85
2023/01/08 10:07:08;;;;;;;10.65;2.45;;;8.60;99.90;;;;;;5049871;28;20098;-85
2023/01/08 10:09:34;;;;;;;10.27;2.30;;;8.60;99.90;;;;;;5063538;28;20047;-85
2023/01/08 10:12:03;;;;;;;8.32;2.10;;;8.60;99.90;;;;;;5034616;28;20040;-85
2023/01/08 10:14:32;;;;;;;7.25;1.98;;;8.60;99.90;;;;;;5046731;28;20043;-85
2023/01/08 10:17:07;;;;;;;14.00;2.55;;;8.70;99.90;;;;;;5042714;28;20485;-85
2023/01/08 10:19:33;;;;;;;12.50;2.25;;;8.70;99.90;;;;;;5047466;28;20184;-85
2023/01/08 10:21:58;;;;;;;9.80;2.45;;;8.70;99.90;;;;;;5030082;28;20269;-85
2023/01/08 10:24:39;;;;;;;11.70;2.50;;;8.70;99.90;;;;;;5059974;28;20048;-85
2023/01/08 10:27:15;;;;;;;12.63;2.42;;;8.70;99.90;;;;;;5041997;28;20041;-85
2023/01/08 10:29:41;;;;;;;10.05;2.30;;;10.00;99.90;;;;;;5047024;28;20145;-85
2023/01/08 10:32:18;;;;;;;13.88;2.95;;;8.70;99.90;;;;;;5067123;28;20041;-85
2023/01/08 10:34:50;;;;;;;10.50;2.25;;;8.80;99.90;;;;;;5040710;28;20052;-85
2023/01/08 10:37:35;;;;;;;10.93;2.40;;;8.80;99.90;;;;;;5053418;28;20044;-86
2023/01/08 10:40:30;;;;;;;8.55;2.10;;;8.80;99.90;;;;;;5079317;28;20044;-85
2023/01/08 10:43:08;;;;;;;7.60;1.90;;;8.80;99.90;;;;;;5057221;28;20428;-86
2023/01/08 10:45:33;;;;;;;11.65;2.03;;;8.80;99.90;;;;;;5064280;28;20074;-85
2023/01/08 10:48:03;;;;;;;10.88;2.45;;;8.80;99.90;;;;;;5048779;28;20047;-85
2023/01/08 10:50:31;;;;;;;11.52;2.35;;;8.90;99.90;;;;;;5063058;28;20578;-86
2023/01/08 10:53:02;;;;;;;8.85;2.03;;;8.90;99.90;;;;;;5063336;28;20079;-85
2023/01/08 10:55:38;;;;;;;10.07;2.67;;;8.90;99.90;;;;;;5057329;28;20844;-85
2023/01/08 10:58:10;;;;;;;10.68;2.47;;;9.00;99.90;;;;;;5055811;28;20120;-86
2023/01/08 11:00:36;;;;;;;11.68;2.28;;;9.00;99.90;;;;;;5047473;28;20088;-86
2023/01/08 11:03:07;;;;;;;10.52;1.98;;;9.00;99.90;;;;;;5066330;28;20606;-85
2023/01/08 11:05:38;;;;;;;11.60;2.50;;;9.00;99.90;;;;;;5061367;28;20119;-85
2023/01/08 11:08:15;;;;;;;12.35;2.35;;;9.00;99.90;;;;;;5047508;28;20064;-85
2023/01/08 11:10:41;;;;;;;10.73;2.50;;;9.00;99.90;;;;;;5050892;28;20063;-85
2023/01/08 11:13:07;;;;;;;11.95;2.40;;;8.90;99.90;;;;;;5064901;28;20497;-85
2023/01/08 11:15:37;;;;;;;11.65;2.30;;;8.90;99.90;;;;;;5056985;28;20398;-85
2023/01/08 11:18:27;;;;;;;9.95;2.50;;;8.90;99.90;;;;;;5063354;28;20037;-85
2023/01/08 11:21:04;;;;;;;13.27;2.60;;;8.90;99.90;;;;;;5080804;28;20044;-84
2023/01/08 11:23:30;;;;;;;9.52;2.08;;;9.00;99.90;;;;;;5054430;28;20070;-85
2023/01/08 11:26:07;;;;;;;11.98;2.70;;;9.00;99.90;;;;;;5071534;28;20054;-84
2023/01/08 11:28:54;;;;;;;11.02;2.30;;;9.10;99.90;;;;;;5075407;28;20589;-84
2023/01/08 11:31:42;;;;;;;13.35;2.88;;;9.20;99.90;;;;;;5048739;28;20044;-85
2023/01/08 11:34:17;;;;;;;15.95;2.47;;;9.20;99.90;;;;;;5064106;28;20067;-84
2023/01/08 11:37:03;;;;;;;11.93;2.60;;;9.20;99.90;;;;;;5062798;28;20037;-85
2023/01/08 11:39:30;;;;;;;15.40;2.47;;;9.20;99.90;;;;;;5050255;28;20053;-85
2023/01/08 11:42:08;;;;;;;12.35;2.47;;;9.10;99.90;;;;;;5056947;28;20066;-84
2023/01/08 11:45:02;;;;;;;12.10;2.53;;;9.20;99.90;;;;;;5053790;28;20291;-84
2023/01/08 11:47:46;;;;;;;;;;;9.10;99.90;;;;;;5073677;28;20044;-84
2023/01/08 11:50:18;;;;;;;10.05;2.15;;;9.10;99.90;;;;;;5050960;28;20373;-84
2023/01/08 11:53:02;;;;;;;14.20;2.90;;;9.10;99.90;;;;;;5058517;28;20033;-85
2023/01/08 11:55:37;;;;;;;9.32;2.22;;;9.20;99.90;;;;;;5055378;28;20045;-85
2023/01/08 11:58:14;;;;;;;16.30;2.88;;;9.20;99.90;;;;;;5052907;28;20037;-85
2023/01/08 12:01:01;;;;;;;11.05;2.38;;;9.20;99.90;;;;;;5052439;28;20041;-85
2023/01/08 12:03:41;;;;;;;13.80;2.75;;;9.20;99.90;;;;;;5053752;28;20068;-85
2023/01/08 12:06:15;;;;;;;12.88;2.90;;;9.10;99.90;;;;;;5087676;28;20063;-85
2023/01/08 12:09:02;;;;;;;13.63;2.92;;;9.10;99.90;;;;;;5070806;28;20123;-85
2023/01/08 12:11:31;;;;;;;13.43;2.60;;;9.20;99.90;;;;;;5060456;28;20037;-85
2023/01/08 12:14:18;;;;;;;11.55;2.72;;;9.20;99.90;;;;;;5055471;28;20600;-85
2023/01/08 12:16:59;;;;;;;12.93;2.65;;;9.20;99.90;;;;;;5070220;28;20465;-85
2023/01/08 12:19:24;;;;;;;11.90;2.53;;;9.20;99.90;;;;;;5070767;28;20040;-84
2023/01/08 12:22:14;;;;;;;12.82;2.60;;;9.30;99.90;;;;;;5071178;28;20452;-85
2023/01/08 12:25:08;;;;;;;10.93;2.47;;;9.30;99.90;;;;;;5066477;28;20467;-85
2023/01/08 12:27:51;;;;;;;;;;;9.30;99.90;;;;;;5080507;28;20040;-85
2023/01/08 12:30:24;;;;;;;13.50;2.47;;;9.20;99.90;;;;;;5050473;28;20054;-85
2023/01/08 12:33:19;;;;;;;12.05;2.47;;;9.30;99.90;;;;;;5042063;28;20044;-85
2023/01/08 12:35:49;;;;;;;13.80;2.58;;;9.20;99.90;;;;;;5042031;28;20170;-85
2023/01/08 12:38:32;;;;;;;14.10;3.10;;;9.10;99.90;;;;;;5056844;28;20041;-85
2023/01/08 12:41:08;;;;;;;11.07;2.65;;;9.10;99.90;;;;;;5059361;28;20194;-85
2023/01/08 12:43:51;;;;;;;10.68;2.65;;;9.10;99.90;;;;;;5070140;28;20071;-84
2023/01/08 12:46:18;;;;;;;13.18;2.67;;;9.10;99.90;;;;;;4705162;28;10000790;-85
2023/01/08 12:48:50;;;;;;;13.32;2.70;;;9.20;99.90;;;;;;5039886;28;20494;-85
2023/01/08 12:51:19;;;;;;;12.40;2.60;;;9.20;99.90;;;;;;5060919;28;20054;-84
2023/01/08 12:54:04;;;;;;;11.32;2.20;;;9.20;99.90;;;;;;5061733;28;20044;-85
2023/01/08 12:56:51;;;;;;;16.20;2.65;;;9.20;99.90;;;;;;5068475;28;20131;-84
2023/01/08 12:59:40;;;;;;;12.90;2.83;;;9.30;99.90;;;;;;5044291;28;20045;-85
2023/01/08 13:02:05;;;;;;;11.30;2.33;;;9.20;99.90;;;;;;5058128;28;20575;-85
2023/01/08 13:04:46;;;;;;;11.55;2.47;;;9.20;99.90;;;;;;5058685;28;20072;-85
2023/01/08 13:07:25;;;;;;;13.25;2.58;;;9.20;99.90;;;;;;5058030;28;20165;-84
2023/01/08 13:09:56;;;;;;;19.90;3.15;;;9.30;99.90;;;;;;5073010;28;20049;-85